Time;durP1;ratioP1;P1;durP2;ratioP2;P2;SDS_P1;SDS_P2;PMS_P1;PMS_P2;Temp;Humidity;BMP_temperature;BMP_pressure;BME280_temperature;BME280_humidity;BME280_pressure;Samples;Min_cycle;Max_cycle;Signal;HPM_P1;HPM_P2
2021/03/17 06:08:25;;;;;;;;;45.50;36.75;;;;;11.76;43.20;98498.34;6242777;27;125150;-60
2021/03/17 06:11:30;;;;;;;;;43.80;34.80;;;;;11.47;43.25;98457.75;6234511;28;124991;-60
2021/03/17 06:14:34;;;;;;;;;45.00;35.00;;;;;11.74;43.19;98506.66;6233804;28;124975;-60
2021/03/17 06:21:34;;;;;;;;;43.00;35.00;;;;;11.89;42.82;98511.56;6191080;28;98478;-61
2021/03/17 06:24:36;;;;;;;;;39.60;33.00;;;;;11.66;42.73;98470.03;6185783;28;126683;-60
2021/03/17 06:27:38;;;;;;;;;36.40;32.00;;;;;11.97;42.77;98517.41;6177763;28;125250;-61
2021/03/17 06:30:40;;;;;;;;;37.00;32.60;;;;;12.05;42.66;98519.75;6183961;28;127427;-61
2021/03/17 06:33:42;;;;;;;;;42.00;33.00;;;;;12.07;42.34;98523.00;6185348;28;127181;-61
2021/03/17 06:36:55;;;;;;;;;42.60;33.00;;;;;12.24;42.22;98533.06;6195653;28;126328;-61
2021/03/17 06:39:57;;;;;;;;;37.00;31.50;;;;;12.34;42.08;98530.56;6188151;28;124857;-61
2021/03/17 06:43:04;;;;;;;;;40.40;33.00;;;;;12.36;42.13;98531.97;6182222;28;125448;-61
2021/03/17 06:46:08;;;;;;;;;36.75;32.50;;;;;12.36;41.46;98510.34;6188076;28;126407;-62
2021/03/17 06:49:39;;;;;;;;;40.00;34.75;;;;;12.43;41.44;98518.28;6174039;28;124535;-61
2021/03/17 06:52:44;;;;;;;;;40.25;34.00;;;;;12.68;41.23;98528.75;6145629;28;126967;-62
2021/03/17 06:55:47;;;;;;;;;38.60;32.20;;;;;12.84;41.40;98538.78;6163951;28;126664;-61
2021/03/17 06:58:51;;;;;;;;;38.40;33.00;;;;;12.89;40.37;98538.88;6164146;28;126437;-61
2021/03/17 07:01:52;;;;;;;;;38.60;32.00;;;;;12.94;40.56;98536.25;6165077;28;124993;-61
2021/03/17 07:04:54;;;;;;;;;36.75;30.00;;;;;12.75;40.54;98516.72;6172947;28;124527;-62
2021/03/17 07:07:56;;;;;;;;;37.40;31.00;;;;;13.05;40.52;98534.53;6167976;28;127226;-61
2021/03/17 07:11:03;;;;;;;;;38.60;32.00;;;;;13.20;40.25;98549.13;6164163;28;127642;-61
2021/03/17 07:14:05;;;;;;;;;42.00;32.00;;;;;13.34;40.08;98547.72;6174636;28;125926;-62
2021/03/17 07:17:29;;;;;;;;;39.00;31.40;;;;;13.53;39.81;98551.00;6169340;28;125124;-61
2021/03/17 07:20:43;;;;;;;;;37.60;32.00;;;;;13.49;39.41;98522.75;6163242;28;125954;-61
2021/03/17 07:23:45;;;;;;;;;36.00;32.00;;;;;13.44;39.03;98496.44;6165145;28;126239;-61
2021/03/17 07:26:47;;;;;;;;;38.00;32.00;;;;;13.98;39.05;98550.78;6161003;28;126701;-61
2021/03/17 07:29:57;;;;;;;;;33.40;30.00;;;;;14.06;38.01;98558.50;6168901;28;125194;-62
2021/03/17 07:33:13;;;;;;;;;33.40;30.00;;;;;13.86;37.57;98521.13;6157573;28;124817;-62
2021/03/17 07:36:34;;;;;;;;;33.00;30.00;;;;;14.10;37.37;98556.09;6156146;28;125054;-61
2021/03/17 07:39:38;;;;;;;;;35.50;31.50;;;;;14.12;37.82;98562.09;6135719;28;123805;-61
2021/03/17 07:42:42;;;;;;;;;31.00;28.20;;;;;14.24;37.42;98557.34;6159722;28;126349;-62
2021/03/17 07:45:43;;;;;;;;;33.25;30.00;;;;;14.30;37.33;98553.63;6144753;28;124920;-61
2021/03/17 07:48:47;;;;;;;;;35.00;30.00;;;;;14.34;37.47;98543.91;6158680;28;127609;-61
2021/03/17 07:51:51;;;;;;;;;35.50;29.25;;;;;14.74;36.64;98566.09;6168050;28;124077;-61
2021/03/17 07:55:04;;;;;;;;;38.80;30.00;;;;;14.74;36.55;98536.25;6160432;28;125148;-61
2021/03/17 07:58:06;;;;;;;;;36.40;30.00;;;;;15.15;36.04;98564.53;6173855;28;124042;-61
2021/03/17 08:01:09;;;;;;;;;32.50;30.00;;;;;15.32;35.23;98567.13;6127262;28;126170;-61
2021/03/17 08:04:14;;;;;;;;;34.40;30.60;;;;;15.83;34.89;98562.09;6153294;28;125349;-61
2021/03/17 08:07:16;;;;;;;;;35.40;31.00;;;;;16.08;34.46;98540.44;6166604;28;126010;-61
2021/03/17 08:10:20;;;;;;;;;32.40;29.40;;;;;16.78;33.50;98571.72;6162193;28;127441;-61
2021/03/17 08:13:22;;;;;;;;;29.00;26.80;;;;;17.05;32.36;98530.63;6154839;28;127091;-61
2021/03/17 08:16:31;;;;;;;;;28.00;26.00;;;;;17.68;32.12;98578.31;6172439;28;126516;-61
2021/03/17 08:19:33;;;;;;;;;24.20;24.00;;;;;18.08;31.13;98580.91;6140981;28;126046;-61
2021/03/17 08:22:38;;;;;;;;;23.60;21.00;;;;;18.66;29.77;98547.69;6167403;28;125571;-61
2021/03/17 08:25:46;;;;;;;;;22.00;21.00;;;;;20.13;27.62;98542.56;6168214;28;124803;-61
2021/03/17 08:28:53;;;;;;;;;23.25;22.00;;;;;21.73;26.15;98541.56;6170902;28;124872;-61
2021/03/17 08:31:54;;;;;;;;;23.40;20.60;;;;;22.59;25.08;98592.84;6172167;28;124906;-61
2021/03/17 08:34:57;;;;;;;;;23.40;19.00;;;;;22.66;24.71;98593.25;6162944;28;125537;-61
2021/03/17 08:38:00;;;;;;;;;21.60;19.00;;;;;21.95;24.29;98586.44;6175295;28;126453;-61
2021/03/17 08:41:02;;;;;;;;;23.60;19.00;;;;;21.76;25.13;98595.81;6162273;28;126922;-61
2021/03/17 08:44:25;;;;;;;;;20.00;18.00;;;;;21.70;24.97;98592.34;6172792;28;125369;-61
2021/03/17 08:47:33;;;;;;;;;23.00;21.80;;;;;21.48;26.15;98594.94;6165883;28;125941;-61
2021/03/17 08:50:47;;;;;;;;;25.00;23.00;;;;;21.23;25.69;98598.91;6138985;28;126099;-61
2021/03/17 08:53:48;;;;;;;;;21.60;19.00;;;;;21.35;25.57;98603.94;6167690;28;126076;-61
2021/03/17 08:56:50;;;;;;;;;21.00;18.40;;;;;20.80;25.42;98586.34;6172651;28;126940;-61
2021/03/17 09:00:01;;;;;;;;;19.00;18.00;;;;;20.19;26.09;98604.31;6173933;28;127260;-61
2021/03/17 09:03:02;;;;;;;;;18.50;18.00;;;;;21.11;25.63;98562.88;6167553;28;126856;-61
2021/03/17 09:06:25;;;;;;;;;19.50;18.50;;;;;20.88;25.65;98599.38;6169554;28;126840;-61
2021/03/17 09:09:47;;;;;;;;;25.50;21.00;;;;;21.17;25.90;98589.13;6168274;28;125606;-60
2021/03/17 09:12:49;;;;;;;;;20.40;18.80;;;;;20.75;25.96;98600.94;6162884;28;126441;-60
2021/03/17 09:15:50;;;;;;;;;20.00;18.00;;;;;20.18;25.98;98596.44;6161989;28;127643;-61
2021/03/17 09:19:04;;;;;;;;;20.60;19.00;;;;;20.23;25.99;98610.84;6148663;28;125828;-59
2021/03/17 09:22:31;;;;;;;;;22.40;21.00;;;;;19.33;27.10;98610.59;6168797;28;124918;-60
2021/03/17 09:25:39;;;;;;;;;23.00;22.00;;;;;18.69;27.91;98605.28;6148586;28;127911;-61
2021/03/17 09:28:40;;;;;;;;;22.00;19.00;;;;;18.28;28.12;98606.50;6169170;28;125466;-60
2021/03/17 09:31:42;;;;;;;;;19.40;18.00;;;;;18.51;27.80;98579.41;6164690;28;125173;-60
2021/03/17 09:34:45;;;;;;;;;22.20;20.00;;;;;19.14;27.19;98600.63;6167487;28;125315;-60
2021/03/17 09:37:47;;;;;;;;;21.40;19.00;;;;;19.15;26.99;98588.59;6169943;28;125118;-61
2021/03/17 09:40:57;;;;;;;;;20.60;18.60;;;;;19.06;27.63;98612.16;6168077;28;124583;-60
2021/03/17 09:44:00;;;;;;;;;21.00;19.25;;;;;18.87;28.11;98604.63;6164947;28;127025;-60
2021/03/17 09:47:02;;;;;;;;;22.50;21.00;;;;;18.62;27.80;98603.97;6163618;28;125054;-60
2021/03/17 09:50:14;;;;;;;;;21.00;19.25;;;;;18.07;28.35;98622.97;6167438;28;125011;-61
2021/03/17 09:53:16;;;;;;;;;20.00;18.40;;;;;17.60;28.12;98612.38;6137420;28;124499;-60
2021/03/17 09:56:32;;;;;;;;;18.50;17.00;;;;;18.17;27.77;98613.94;6166746;28;127128;-61
2021/03/17 09:59:35;;;;;;;;;19.00;17.00;;;;;19.43;26.57;98609.69;6170980;28;125748;-60
2021/03/17 10:02:45;;;;;;;;;19.50;19.00;;;;;19.88;25.77;98613.97;6145613;28;125246;-61
2021/03/17 10:05:47;;;;;;;;;21.00;18.00;;;;;19.80;25.66;98611.84;6164696;28;127207;-59
2021/03/17 10:08:55;;;;;;;;;20.00;17.20;;;;;21.16;24.68;98612.16;6173916;28;126782;-59
2021/03/17 10:12:14;;;;;;;;;18.00;16.00;;;;;21.39;24.36;98610.44;6148630;28;126322;-59
2021/03/17 10:15:20;;;;;;;;;16.60;16.00;;;;;21.02;23.86;98605.75;6166824;28;125967;-60
2021/03/17 10:18:23;;;;;;;;;18.80;17.80;;;;;21.53;22.98;98612.13;6167207;28;125616;-61
2021/03/17 10:21:26;;;;;;;;;18.00;16.00;;;;;21.02;22.90;98606.56;6169164;28;125146;-61
2021/03/17 10:24:38;;;;;;;;;18.80;17.00;;;;;21.98;22.71;98620.72;6168978;28;126050;-61
2021/03/17 10:27:46;;;;;;;;;17.00;16.00;;;;;22.99;21.72;98624.16;6168378;28;127386;-61
2021/03/17 10:30:49;;;;;;;;;19.00;16.00;;;;;22.92;22.00;98618.25;6172100;28;125855;-60
2021/03/17 10:33:51;;;;;;;;;17.80;17.00;;;;;23.37;21.52;98608.16;6173375;28;127100;-61
2021/03/17 10:36:55;;;;;;;;;19.00;17.00;;;;;22.30;21.47;98606.91;6174872;28;127823;-61
2021/03/17 10:40:08;;;;;;;;;18.60;17.40;;;;;21.67;22.26;98612.16;6171328;28;125961;-60
2021/03/17 10:43:13;;;;;;;;;19.50;16.75;;;;;21.09;22.91;98615.25;6162899;28;127120;-60
2021/03/17 10:46:14;;;;;;;;;18.40;16.00;;;;;21.43;22.62;98590.34;6172643;28;124855;-59
2021/03/17 10:49:16;;;;;;;;;18.00;14.00;;;;;21.22;23.27;98608.22;6173226;28;128023;-60
2021/03/17 10:52:17;;;;;;;;;18.00;16.00;;;;;21.53;22.79;98603.06;6172651;28;126607;-59
2021/03/17 10:55:26;;;;;;;;;19.00;17.00;;;;;21.73;22.08;98610.97;6142899;28;125286;-60
2021/03/17 10:58:30;;;;;;;;;16.60;14.60;;;;;21.88;21.85;98610.69;6169364;28;124935;-59
2021/03/17 11:01:32;;;;;;;;;14.00;13.00;;;;;22.58;21.43;98604.94;6167732;28;124984;-60
2021/03/17 11:04:34;;;;;;;;;21.00;18.00;;;;;23.13;21.26;98611.19;6170048;28;127496;-60
2021/03/17 11:08:00;;;;;;;;;18.20;14.20;;;;;22.70;21.44;98599.78;6171410;28;125262;-61
2021/03/17 11:11:06;;;;;;;;;19.00;18.00;;;;;22.19;21.96;98599.16;6175530;28;126715;-61
2021/03/17 11:14:08;;;;;;;;;14.40;14.00;;;;;23.14;20.52;98592.75;6161635;28;127478;-60
2021/03/17 11:17:09;;;;;;;;;13.20;13.00;;;;;23.63;20.23;98561.59;6171810;28;128310;-60
2021/03/17 11:20:13;;;;;;;;;14.40;13.00;;;;;23.65;20.18;98560.13;6162263;28;127115;-61
2021/03/17 11:23:16;;;;;;;;;13.75;12.75;;;;;23.60;20.28;98603.50;6167516;28;125560;-59
2021/03/17 11:26:30;;;;;;;;;18.80;16.80;;;;;22.49;20.96;98604.03;6170579;28;126946;-60
2021/03/17 11:29:33;;;;;;;;;16.60;15.00;;;;;22.45;21.67;98603.03;6172388;28;128103;-60
2021/03/17 11:32:34;;;;;;;;;15.00;15.00;;;;;22.50;21.03;98607.59;6149457;28;126542;-61
2021/03/17 11:35:36;;;;;;;;;15.80;13.80;;;;;21.64;21.65;98598.25;6165528;28;124942;-60
2021/03/17 11:38:38;;;;;;;;;13.40;12.40;;;;;21.58;21.77;98584.59;6177403;28;127628;-60
2021/03/17 11:41:45;;;;;;;;;15.40;14.00;;;;;21.80;21.97;98605.06;6148608;28;126892;-60
2021/03/17 11:44:47;;;;;;;;;11.00;10.00;;;;;20.94;22.48;98593.53;6151877;28;126694;-60
2021/03/17 11:47:49;;;;;;;;;11.00;10.00;;;;;21.22;21.83;98600.00;6173944;28;126956;-60
2021/03/17 11:50:53;;;;;;;;;13.80;11.80;;;;;21.54;21.59;98596.47;6172686;28;126606;-60
2021/03/17 11:53:55;;;;;;;;;14.40;13.40;;;;;21.29;22.19;98589.47;6169155;28;127105;-60
2021/03/17 11:56:56;;;;;;;;;12.40;11.40;;;;;20.92;22.39;98581.22;6150284;28;127279;-60
2021/03/17 11:59:58;;;;;;;;;11.40;11.00;;;;;20.49;22.25;98594.97;6153867;28;127107;-59
2021/03/17 12:02:59;;;;;;;;;11.00;10.00;;;;;20.53;22.53;98598.75;6150800;28;127410;-61
2021/03/17 12:06:02;;;;;;;;;12.60;12.00;;;;;20.48;22.45;98592.50;6166105;28;128529;-61
2021/03/17 12:09:04;;;;;;;;;12.60;12.00;;;;;19.80;22.82;98599.00;6141997;28;125510;-61
2021/03/17 12:12:07;;;;;;;;;12.00;11.00;;;;;18.97;23.49;98593.63;6165934;28;128305;-60
2021/03/17 12:15:11;;;;;;;;;13.00;12.00;;;;;18.72;24.06;98603.88;6171353;28;125792;-60
2021/03/17 12:18:13;;;;;;;;;14.60;13.40;;;;;18.37;24.97;98596.66;6175577;28;126833;-60
2021/03/17 12:21:15;;;;;;;;;14.00;14.00;;;;;18.15;24.88;98599.72;6176103;28;128192;-59
2021/03/17 12:24:17;;;;;;;;;15.80;15.00;;;;;17.54;26.09;98601.72;6171650;28;125183;-60
2021/03/17 12:27:18;;;;;;;;;16.00;13.00;;;;;16.81;26.76;98574.69;6177000;28;127659;-60
2021/03/17 12:30:22;;;;;;;;;17.20;14.00;;;;;16.63;27.50;98602.44;6165230;28;126733;-60
2021/03/17 12:33:23;;;;;;;;;14.00;12.00;;;;;16.33;27.80;98605.00;6168399;28;125991;-60
2021/03/17 12:36:25;;;;;;;;;17.60;15.00;;;;;15.15;28.36;98495.84;6173285;28;127351;-59
2021/03/17 12:39:27;;;;;;;;;16.00;14.00;;;;;15.54;29.14;98613.25;6173834;28;127384;-60
2021/03/17 12:42:29;;;;;;;;;15.60;15.00;;;;;15.38;29.04;98623.16;6170572;28;127431;-60
2021/03/17 12:45:32;;;;;;;;;16.50;15.50;;;;;14.83;30.28;98590.88;6170087;28;127138;-60
2021/03/17 12:48:33;;;;;;;;;22.00;18.00;;;;;14.75;30.72;98642.88;6171980;28;126376;-59
2021/03/17 12:51:35;;;;;;;;;17.00;15.00;;;;;14.46;31.24;98644.16;6167551;28;128722;-60
2021/03/17 12:54:37;;;;;;;;;15.50;15.00;;;;;14.17;31.26;98648.91;6170604;28;126519;-60
2021/03/17 12:57:39;;;;;;;;;20.00;18.00;;;;;13.73;31.51;98659.63;6151414;28;126457;-60
2021/03/17 13:00:40;;;;;;;;;17.00;16.00;;;;;13.47;31.74;98654.09;6165607;28;125119;-60
2021/03/17 13:03:43;;;;;;;;;15.60;13.60;;;;;13.39;32.18;98672.34;6152651;28;126315;-60
2021/03/17 13:06:45;;;;;;;;;17.60;16.00;;;;;13.24;32.55;98660.47;6166050;28;124037;-60
2021/03/17 13:09:46;;;;;;;;;14.00;11.60;;;;;13.01;32.48;98659.47;6165852;28;125950;-60
2021/03/17 13:12:48;;;;;;;;;14.60;13.00;;;;;12.89;32.63;98674.97;6169203;28;126539;-60
2021/03/17 13:15:50;;;;;;;;;14.00;12.80;;;;;12.98;32.52;98668.09;6164058;28;126530;-59
2021/03/17 13:18:52;;;;;;;;;13.00;12.00;;;;;12.95;32.14;98673.97;6164976;28;125738;-59
2021/03/17 13:21:54;;;;;;;;;14.75;13.00;;;;;13.02;32.37;98682.78;6160316;28;126464;-60
2021/03/17 13:24:57;;;;;;;;;16.40;15.00;;;;;12.91;32.73;98670.13;6163883;28;126316;-60
2021/03/17 13:27:58;;;;;;;;;12.67;12.33;;;;;12.98;32.52;98680.81;6162637;28;126997;-60
2021/03/17 13:31:00;;;;;;;;;14.00;12.00;;;;;12.93;33.11;98669.88;6160077;28;126710;-59
2021/03/17 13:34:01;;;;;;;;;14.00;14.00;;;;;12.95;32.16;98679.38;6164718;28;127410;-59
2021/03/17 13:37:06;;;;;;;;;12.60;11.00;;;;;12.98;32.56;98686.22;6161890;28;128430;-60
2021/03/17 13:40:15;;;;;;;;;13.00;11.80;;;;;13.07;32.22;98678.53;6166643;28;126000;-60
2021/03/17 13:43:17;;;;;;;;;14.00;13.00;;;;;13.13;32.24;98681.13;6161535;28;124786;-60
2021/03/17 13:46:18;;;;;;;;;13.00;12.00;;;;;13.16;32.47;98686.03;6144807;28;125187;-60
2021/03/17 13:49:20;;;;;;;;;16.40;14.00;;;;;13.19;32.49;98688.28;6169187;28;125451;-60
2021/03/17 13:52:21;;;;;;;;;12.80;12.40;;;;;13.18;32.21;98670.38;6168031;28;128474;-60
2021/03/17 13:55:24;;;;;;;;;15.00;13.60;;;;;13.09;32.43;98693.47;6164784;28;127434;-59
2021/03/17 13:58:32;;;;;;;;;12.00;11.20;;;;;12.80;32.15;98652.06;6165560;28;126018;-60
2021/03/17 14:01:36;;;;;;;;;14.00;12.00;;;;;13.08;32.23;98699.94;6169686;28;127786;-59
2021/03/17 14:04:38;;;;;;;;;15.80;14.00;;;;;13.12;31.60;98703.00;6168666;28;126028;-60
2021/03/17 14:07:40;;;;;;;;;13.00;12.00;;;;;12.98;31.95;98688.91;6175945;28;127071;-59
2021/03/17 14:10:43;;;;;;;;;15.25;13.25;;;;;12.96;31.85;98672.09;6171693;28;126015;-60
2021/03/17 14:13:45;;;;;;;;;13.40;12.00;;;;;12.95;31.58;98698.31;6174384;28;126248;-59
2021/03/17 14:16:46;;;;;;;;;13.60;13.00;;;;;13.03;31.70;98702.53;6178012;28;125800;-60
2021/03/17 14:19:48;;;;;;;;;15.00;14.00;;;;;13.02;32.26;98709.84;6166534;28;125518;-61
2021/03/17 14:22:49;;;;;;;;;19.60;16.20;;;;;12.90;32.05;98706.34;6176387;28;126651;-59
2021/03/17 14:25:52;;;;;;;;;14.00;13.00;;;;;12.92;32.25;98715.06;6169028;28;126407;-60
2021/03/17 14:28:54;;;;;;;;;16.00;15.00;;;;;12.80;32.40;98711.59;6173634;28;126441;-60
2021/03/17 14:31:55;;;;;;;;;15.80;15.00;;;;;12.67;32.05;98703.72;6172883;28;127822;-60
2021/03/17 14:34:56;;;;;;;;;13.60;13.60;;;;;12.74;31.98;98711.72;6171346;28;127681;-60
2021/03/17 14:37:58;;;;;;;;;16.40;16.00;;;;;12.72;31.95;98706.53;6176700;28;127223;-59
2021/03/17 14:41:00;;;;;;;;;17.00;14.00;;;;;12.72;32.17;98706.53;6169201;28;127493;-61
2021/03/17 14:44:01;;;;;;;;;14.00;13.60;;;;;12.72;32.37;98714.66;6171735;28;125630;-59
2021/03/17 14:47:05;;;;;;;;;18.00;16.00;;;;;12.66;32.98;98712.09;6174645;28;126562;-60
2021/03/17 14:50:08;;;;;;;;;19.00;16.00;;;;;12.60;33.26;98713.88;6167930;28;127483;-60
2021/03/17 14:53:11;;;;;;;;;13.50;13.50;;;;;12.62;33.41;98717.13;6160336;28;127082;-59
2021/03/17 14:56:12;;;;;;;;;16.00;16.00;;;;;12.69;33.43;98720.53;6170598;28;126899;-59
2021/03/17 14:59:14;;;;;;;;;16.00;14.00;;;;;12.71;33.35;98720.28;6170705;28;125139;-59
2021/03/17 15:02:16;;;;;;;;;17.40;16.20;;;;;12.72;33.24;98720.06;6171571;28;126734;-60
2021/03/17 15:05:17;;;;;;;;;17.00;16.00;;;;;12.74;33.16;98720.66;6170962;28;127082;-61
2021/03/17 15:08:19;;;;;;;;;16.80;15.00;;;;;12.59;33.42;98723.03;6176036;28;128102;-59
2021/03/17 15:11:21;;;;;;;;;14.00;14.00;;;;;12.56;33.50;98718.09;6145861;28;124331;-61
2021/03/17 15:14:23;;;;;;;;;15.40;14.00;;;;;12.45;33.31;98681.94;6172373;28;125689;-60
2021/03/17 15:17:24;;;;;;;;;15.00;13.60;;;;;12.78;33.41;98729.94;6169328;28;125996;-59
2021/03/17 15:20:27;;;;;;;;;17.00;16.00;;;;;12.78;33.43;98734.50;6168504;28;127718;-59
2021/03/17 15:23:28;;;;;;;;;15.00;15.00;;;;;12.50;33.79;98692.03;6148657;28;128094;-60
2021/03/17 15:26:30;;;;;;;;;16.40;15.00;;;;;12.80;33.44;98738.63;6171302;28;128506;-59
2021/03/17 15:29:32;;;;;;;;;16.50;15.50;;;;;12.81;33.50;98736.72;6169299;28;125523;-59
2021/03/17 15:32:35;;;;;;;;;15.00;12.20;;;;;12.84;33.43;98736.25;6165292;28;126712;-61
2021/03/17 15:35:38;;;;;;;;;14.50;13.75;;;;;12.83;33.91;98740.84;6173516;28;125172;-60
2021/03/17 15:38:40;;;;;;;;;18.00;16.20;;;;;12.50;33.93;98700.97;6172364;28;125645;-61
2021/03/17 15:41:42;;;;;;;;;19.00;14.50;;;;;12.68;34.12;98754.06;6149738;28;126743;-59
2021/03/17 15:44:43;;;;;;;;;18.00;16.00;;;;;12.63;34.41;98745.84;6167508;28;125724;-60
2021/03/17 15:47:46;;;;;;;;;19.00;18.00;;;;;12.56;34.36;98745.13;6172287;28;125482;-60
2021/03/17 15:50:47;;;;;;;;;17.00;16.00;;;;;12.59;34.43;98742.78;6168415;28;125042;-59
2021/03/17 15:53:49;;;;;;;;;17.00;16.00;;;;;12.43;34.42;98721.06;6165029;28;125794;-60
2021/03/17 15:56:51;;;;;;;;;17.00;16.00;;;;;12.47;34.65;98755.50;6167886;28;127766;-61
2021/03/17 16:00:06;;;;;;;;;17.00;16.00;;;;;12.42;34.79;98743.75;6166870;28;125986;-60
2021/03/17 16:03:12;;;;;;;;;17.00;16.00;;;;;12.11;34.79;98693.59;6172862;28;125705;-59
2021/03/17 16:06:13;;;;;;;;;20.60;19.00;;;;;12.49;35.16;98761.50;6166191;28;126335;-60
2021/03/17 16:09:15;;;;;;;;;17.20;16.80;;;;;12.25;34.97;98732.03;6168404;28;126661;-60
2021/03/17 16:12:16;;;;;;;;;17.00;16.00;;;;;12.49;34.90;98771.50;6166312;28;127947;-61
2021/03/17 16:15:19;;;;;;;;;20.40;17.40;;;;;12.52;34.81;98771.00;6171332;28;127744;-59
2021/03/17 16:18:20;;;;;;;;;18.00;17.00;;;;;12.39;34.82;98760.44;6174949;28;127201;-61
2021/03/17 16:21:22;;;;;;;;;19.00;16.60;;;;;12.45;35.05;98773.03;6164873;28;126418;-60
2021/03/17 16:24:24;;;;;;;;;19.75;17.00;;;;;12.31;34.87;98747.31;6169985;28;127125;-59
2021/03/17 16:27:25;;;;;;;;;19.00;16.00;;;;;12.50;34.94;98784.78;6165445;28;127544;-60
2021/03/17 16:30:29;;;;;;;;;19.00;18.00;;;;;12.30;34.78;98754.59;6166219;28;127603;-60
2021/03/17 16:33:35;;;;;;;;;18.00;17.00;;;;;12.45;35.20;98794.66;6171724;28;125445;-61
2021/03/17 16:36:37;;;;;;;;;19.00;16.60;;;;;12.17;35.12;98745.91;6148476;28;123865;-60
2021/03/17 16:39:39;;;;;;;;;15.60;15.00;;;;;12.29;35.24;98763.75;6164260;28;125218;-60
2021/03/17 16:42:41;;;;;;;;;19.00;18.00;;;;;12.33;35.33;98780.31;6167383;28;127073;-61
2021/03/17 16:45:43;;;;;;;;;20.00;19.00;;;;;12.48;35.41;98802.28;6171642;28;124192;-60
2021/03/17 16:48:45;;;;;;;;;18.20;18.20;;;;;12.39;35.77;98803.72;6145747;28;125502;-60
2021/03/17 16:51:46;;;;;;;;;21.00;18.00;;;;;12.32;36.01;98803.81;6166995;28;126104;-60
2021/03/17 16:54:48;;;;;;;;;19.60;18.60;;;;;12.26;36.17;98812.06;6168220;28;126626;-60
2021/03/17 16:57:50;;;;;;;;;19.60;18.60;;;;;12.16;36.60;98815.34;6165716;28;126640;-60
2021/03/17 17:00:51;;;;;;;;;24.60;23.00;;;;;11.50;36.54;98715.59;6169761;28;124556;-60
2021/03/17 17:03:53;;;;;;;;;21.00;19.40;;;;;12.18;36.69;98826.72;6169369;28;125123;-60
2021/03/17 17:06:54;;;;;;;;;23.00;19.00;;;;;12.11;36.66;98826.84;6166571;28;125453;-59
2021/03/17 17:09:56;;;;;;;;;21.00;19.60;;;;;12.10;36.99;98830.59;6169572;28;125717;-60
2021/03/17 17:12:57;;;;;;;;;21.00;20.00;;;;;12.13;36.92;98830.13;6165271;28;126786;-60
2021/03/17 17:15:59;;;;;;;;;19.00;17.60;;;;;12.05;37.43;98835.06;6167342;28;127394;-59
2021/03/17 17:19:00;;;;;;;;;19.00;18.00;;;;;12.04;37.17;98842.34;6167737;28;125543;-59
2021/03/17 17:22:03;;;;;;;;;20.60;19.00;;;;;12.01;37.60;98840.09;6175669;28;126287;-60
2021/03/17 17:25:05;;;;;;;;;22.50;20.00;;;;;11.71;37.56;98783.41;6179728;28;127073;-59
2021/03/17 17:28:07;;;;;;;;;20.60;20.60;;;;;11.71;37.57;98783.41;6161355;28;127887;-60
2021/03/17 17:31:14;;;;;;;;;20.00;18.00;;;;;12.11;37.53;98843.06;6169925;28;123911;-62
2021/03/17 17:34:22;;;;;;;;;19.00;18.00;;;;;12.14;37.48;98847.16;6141834;28;125834;-60
2021/03/17 17:37:24;;;;;;;;;21.00;20.00;;;;;12.05;37.58;98841.28;6162714;28;125436;-60
2021/03/17 17:40:29;;;;;;;;;20.25;18.00;;;;;12.15;37.59;98860.47;6165980;28;125695;-60
2021/03/17 17:43:32;;;;;;;;;21.00;18.00;;;;;12.19;37.41;98854.56;6177536;28;123947;-60
2021/03/17 17:46:33;;;;;;;;;20.00;19.00;;;;;12.12;37.78;98854.66;6176924;28;126836;-60
2021/03/17 17:49:35;;;;;;;;;21.00;19.00;;;;;12.19;37.57;98859.97;6171048;28;126350;-60
2021/03/17 17:52:36;;;;;;;;;20.40;20.00;;;;;11.86;37.42;98811.88;6163831;28;126541;-59
2021/03/17 17:55:39;;;;;;;;;21.00;20.40;;;;;11.90;37.71;98827.38;6146856;28;126068;-59
2021/03/17 17:58:40;;;;;;;;;22.40;20.40;;;;;12.07;37.81;98846.47;6175288;28;125237;-59
2021/03/17 18:01:42;;;;;;;;;21.00;20.00;;;;;12.14;37.94;98860.69;6167767;28;127606;-59
2021/03/17 18:04:43;;;;;;;;;22.20;20.20;;;;;12.15;37.76;98868.56;6166587;28;125083;-59
2021/03/17 18:07:46;;;;;;;;;24.00;22.40;;;;;12.19;37.60;98873.50;6167463;28;126743;-59
2021/03/17 18:10:47;;;;;;;;;24.00;21.40;;;;;12.14;37.80;98866.91;6172699;28;125574;-59
2021/03/17 18:13:49;;;;;;;;;22.80;20.80;;;;;12.17;37.89;98867.50;6176861;28;125271;-59
2021/03/17 18:16:51;;;;;;;;;23.00;21.00;;;;;12.13;37.99;98872.53;6176118;28;125104;-59
2021/03/17 18:19:52;;;;;;;;;23.75;21.75;;;;;12.11;38.23;98880.91;6170044;28;125378;-59
2021/03/17 18:22:56;;;;;;;;;27.00;24.00;;;;;12.13;37.81;98873.38;6164262;28;126056;-60
2021/03/17 18:25:58;;;;;;;;;26.50;24.25;;;;;12.17;37.94;98875.63;6172654;28;126693;-60
2021/03/17 18:28:59;;;;;;;;;25.00;22.00;;;;;12.11;37.81;98858.44;6167674;28;125618;-59
2021/03/17 18:32:01;;;;;;;;;24.00;21.80;;;;;12.22;37.69;98870.34;6169193;28;126484;-58
2021/03/17 18:35:05;;;;;;;;;24.00;21.00;;;;;12.11;37.87;98872.78;6163585;28;126141;-59
2021/03/17 18:38:07;;;;;;;;;23.00;21.00;;;;;12.15;37.49;98868.56;6156725;28;126518;-59
2021/03/17 18:41:09;;;;;;;;;24.40;22.00;;;;;12.18;37.70;98871.84;6165770;28;127117;-59
2021/03/17 18:44:10;;;;;;;;;23.00;21.00;;;;;12.20;37.51;98875.16;6166846;28;126665;-58
2021/03/17 18:47:11;;;;;;;;;24.00;21.60;;;;;12.18;37.59;98871.84;6174042;28;127464;-60
2021/03/17 18:50:15;;;;;;;;;23.00;21.00;;;;;11.90;37.65;98835.50;6165806;28;125632;-60
2021/03/17 18:53:17;;;;;;;;;24.60;22.00;;;;;12.15;37.82;98878.53;6154145;28;126110;-59
2021/03/17 18:56:19;;;;;;;;;25.00;22.00;;;;;12.10;38.01;98876.53;6178648;28;126519;-59
2021/03/17 18:59:20;;;;;;;;;22.60;21.00;;;;;11.83;37.52;98833.94;6178936;28;124298;-60
2021/03/17 19:02:22;;;;;;;;;24.80;23.80;;;;;12.19;37.68;98871.63;6167900;28;126466;-60
2021/03/17 19:05:25;;;;;;;;;24.00;21.75;;;;;12.13;37.82;98876.06;6161126;28;126061;-58
2021/03/17 19:08:28;;;;;;;;;24.60;20.80;;;;;11.87;37.74;98843.25;6145427;28;126747;-58
2021/03/17 19:11:30;;;;;;;;;23.80;23.00;;;;;12.11;37.60;98874.66;6178736;28;126432;-58
2021/03/17 19:14:31;;;;;;;;;21.40;20.00;;;;;12.13;37.91;98875.25;6177333;28;126110;-59
2021/03/17 19:17:34;;;;;;;;;24.25;22.25;;;;;12.18;37.64;98882.66;6145213;28;127509;-59
2021/03/17 19:20:42;;;;;;;;;22.80;20.80;;;;;12.14;37.64;98880.44;6152362;28;126455;-59
2021/03/17 19:23:46;;;;;;;;;21.00;20.00;;;;;11.85;37.71;98840.75;6158050;28;125798;-59
2021/03/17 19:26:47;;;;;;;;;24.00;21.40;;;;;12.15;37.63;98884.78;6154656;28;126301;-58
2021/03/17 19:29:49;;;;;;;;;25.25;22.25;;;;;12.02;37.72;98876.84;6158424;28;126408;-58
2021/03/17 19:32:51;;;;;;;;;21.00;20.00;;;;;12.11;37.97;98885.47;6162185;28;124610;-58
2021/03/17 19:35:53;;;;;;;;;24.00;21.00;;;;;12.07;38.06;98885.09;6141964;28;127354;-59
2021/03/17 19:38:57;;;;;;;;;24.60;22.60;;;;;11.81;38.17;98852.25;6143561;28;127161;-59
2021/03/17 19:42:04;;;;;;;;;24.25;22.00;;;;;12.02;38.07;98887.66;6165978;28;124373;-58
2021/03/17 19:45:09;;;;;;;;;24.00;23.00;;;;;12.07;38.01;98887.78;6159284;28;124869;-59
2021/03/17 19:48:12;;;;;;;;;27.00;25.00;;;;;12.06;38.41;98886.19;6134811;28;124940;-58
2021/03/17 19:51:21;;;;;;;;;24.50;23.00;;;;;12.06;38.41;98888.06;6152103;28;125287;-59
2021/03/17 19:54:44;;;;;;;;;25.20;23.20;;;;;12.04;38.53;98892.84;6174964;28;124773;-59
2021/03/17 19:58:04;;;;;;;;;21.60;20.00;;;;;11.96;38.34;98880.50;6171658;28;127084;-59
2021/03/17 20:01:29;;;;;;;;;23.00;21.80;;;;;11.93;38.97;98885.53;6156908;28;125922;-58
2021/03/17 20:05:01;;;;;;;;;24.00;22.00;;;;;11.82;38.75;98875.53;6170415;28;97579;-59
2021/03/17 20:08:06;;;;;;;;;28.40;23.20;;;;;11.69;38.83;98853.00;6167752;28;125923;-59